sensor_id;sensor_type;location;lat;lon;timestamp;P1;durP1;ratioP1;P2;durP2;ratioP2
51764;SDS011;37835;53.256;6.456;2024-02-16T00:00:33;7.13;;;4.47;;
51764;SDS011;37835;53.256;6.456;2024-02-16T00:02:59;13.05;;;4.53;;
51764;SDS011;37835;53.256;6.456;2024-02-16T00:05:25;10.90;;;4.97;;
51764;SDS011;37835;53.256;6.456;2024-02-16T00:07:53;10.10;;;4.57;;
51764;SDS011;37835;53.256;6.456;2024-02-16T00:10:19;6.90;;;4.32;;
51764;SDS011;37835;53.256;6.456;2024-02-16T00:12:46;8.05;;;4.78;;
51764;SDS011;37835;53.256;6.456;2024-02-16T00:15:12;9.48;;;4.45;;
51764;SDS011;37835;53.256;6.456;2024-02-16T00:17:38;7.60;;;4.10;;
51764;SDS011;37835;53.256;6.456;2024-02-16T00:20:04;8.95;;;4.50;;
51764;SDS011;37835;53.256;6.456;2024-02-16T00:22:32;7.53;;;4.22;;
51764;SDS011;37835;53.256;6.456;2024-02-16T00:24:59;8.88;;;4.35;;
51764;SDS011;37835;53.256;6.456;2024-02-16T00:27:25;6.90;;;4.05;;
51764;SDS011;37835;53.256;6.456;2024-02-16T00:29:51;5.57;;;4.38;;
51764;SDS011;37835;53.256;6.456;2024-02-16T00:32:17;8.05;;;4.57;;
51764;SDS011;37835;53.256;6.456;2024-02-16T00:34:43;9.40;;;4.30;;
51764;SDS011;37835;53.256;6.456;2024-02-16T00:37:08;7.45;;;4.13;;
51764;SDS011;37835;53.256;6.456;2024-02-16T00:39:40;8.73;;;4.53;;
51764;SDS011;37835;53.256;6.456;2024-02-16T00:42:06;13.32;;;4.88;;
51764;SDS011;37835;53.256;6.456;2024-02-16T00:44:32;7.65;;;4.05;;
51764;SDS011;37835;53.256;6.456;2024-02-16T00:46:58;6.10;;;4.13;;
51764;SDS011;37835;53.256;6.456;2024-02-16T00:49:25;6.57;;;3.85;;
51764;SDS011;37835;53.256;6.456;2024-02-16T00:51:51;10.60;;;4.32;;
51764;SDS011;37835;53.256;6.456;2024-02-16T00:54:17;10.90;;;4.07;;
51764;SDS011;37835;53.256;6.456;2024-02-16T00:56:43;10.05;;;4.55;;
51764;SDS011;37835;53.256;6.456;2024-02-16T00:59:08;7.22;;;3.95;;
51764;SDS011;37835;53.256;6.456;2024-02-16T01:01:35;8.20;;;4.28;;
51764;SDS011;37835;53.256;6.456;2024-02-16T01:04:01;9.10;;;4.40;;
51764;SDS011;37835;53.256;6.456;2024-02-16T01:06:27;8.52;;;4.38;;
51764;SDS011;37835;53.256;6.456;2024-02-16T01:08:53;7.13;;;4.15;;
51764;SDS011;37835;53.256;6.456;2024-02-16T01:11:19;7.45;;;4.05;;
51764;SDS011;37835;53.256;6.456;2024-02-16T01:13:45;7.38;;;3.92;;
51764;SDS011;37835;53.256;6.456;2024-02-16T01:16:11;8.75;;;4.13;;
51764;SDS011;37835;53.256;6.456;2024-02-16T01:18:37;11.63;;;3.78;;
51764;SDS011;37835;53.256;6.456;2024-02-16T01:21:03;7.63;;;3.90;;
51764;SDS011;37835;53.256;6.456;2024-02-16T01:23:29;6.13;;;4.03;;
51764;SDS011;37835;53.256;6.456;2024-02-16T01:25:58;9.10;;;4.20;;
51764;SDS011;37835;53.256;6.456;2024-02-16T01:28:24;9.82;;;4.47;;
51764;SDS011;37835;53.256;6.456;2024-02-16T01:30:49;11.02;;;4.22;;
51764;SDS011;37835;53.256;6.456;2024-02-16T01:33:15;5.47;;;4.30;;
51764;SDS011;37835;53.256;6.456;2024-02-16T01:35:41;11.05;;;4.53;;
51764;SDS011;37835;53.256;6.456;2024-02-16T01:38:07;8.93;;;4.65;;
51764;SDS011;37835;53.256;6.456;2024-02-16T01:40:32;9.23;;;4.35;;
51764;SDS011;37835;53.256;6.456;2024-02-16T01:42:58;8.60;;;4.03;;
51764;SDS011;37835;53.256;6.456;2024-02-16T01:45:24;10.57;;;4.45;;
51764;SDS011;37835;53.256;6.456;2024-02-16T01:47:51;6.10;;;3.70;;
51764;SDS011;37835;53.256;6.456;2024-02-16T01:50:18;8.07;;;4.78;;
51764;SDS011;37835;53.256;6.456;2024-02-16T01:52:44;7.80;;;3.78;;
51764;SDS011;37835;53.256;6.456;2024-02-16T01:55:12;8.63;;;4.45;;
51764;SDS011;37835;53.256;6.456;2024-02-16T01:57:44;8.38;;;3.72;;
51764;SDS011;37835;53.256;6.456;2024-02-16T02:00:12;5.93;;;3.70;;
51764;SDS011;37835;53.256;6.456;2024-02-16T02:02:44;7.90;;;4.15;;
51764;SDS011;37835;53.256;6.456;2024-02-16T02:05:11;8.93;;;4.10;;
51764;SDS011;37835;53.256;6.456;2024-02-16T02:07:38;7.25;;;4.00;;
51764;SDS011;37835;53.256;6.456;2024-02-16T02:10:04;6.93;;;3.70;;
51764;SDS011;37835;53.256;6.456;2024-02-16T02:12:30;10.25;;;4.07;;
51764;SDS011;37835;53.256;6.456;2024-02-16T02:14:56;5.80;;;3.80;;
51764;SDS011;37835;53.256;6.456;2024-02-16T02:17:21;11.10;;;4.38;;
51764;SDS011;37835;53.256;6.456;2024-02-16T02:19:47;5.88;;;3.35;;
51764;SDS011;37835;53.256;6.456;2024-02-16T02:22:17;5.93;;;4.15;;
51764;SDS011;37835;53.256;6.456;2024-02-16T02:24:47;5.15;;;3.80;;
51764;SDS011;37835;53.256;6.456;2024-02-16T02:27:16;5.43;;;3.72;;
51764;SDS011;37835;53.256;6.456;2024-02-16T02:29:42;4.88;;;3.47;;
51764;SDS011;37835;53.256;6.456;2024-02-16T02:32:09;7.85;;;4.00;;
51764;SDS011;37835;53.256;6.456;2024-02-16T02:34:35;9.18;;;3.58;;
51764;SDS011;37835;53.256;6.456;2024-02-16T02:37:04;13.35;;;4.35;;
51764;SDS011;37835;53.256;6.456;2024-02-16T02:39:30;11.52;;;3.72;;
51764;SDS011;37835;53.256;6.456;2024-02-16T02:41:58;6.70;;;3.72;;
51764;SDS011;37835;53.256;6.456;2024-02-16T02:44:24;7.43;;;3.72;;
51764;SDS011;37835;53.256;6.456;2024-02-16T02:46:50;5.05;;;3.30;;
51764;SDS011;37835;53.256;6.456;2024-02-16T02:49:16;4.95;;;2.85;;
51764;SDS011;37835;53.256;6.456;2024-02-16T02:51:42;7.78;;;4.13;;
51764;SDS011;37835;53.256;6.456;2024-02-16T02:54:08;9.40;;;3.95;;
51764;SDS011;37835;53.256;6.456;2024-02-16T02:56:34;7.65;;;3.90;;
51764;SDS011;37835;53.256;6.456;2024-02-16T02:58:59;6.10;;;3.88;;
51764;SDS011;37835;53.256;6.456;2024-02-16T03:01:25;7.60;;;4.00;;
51764;SDS011;37835;53.256;6.456;2024-02-16T03:03:51;8.90;;;4.07;;
51764;SDS011;37835;53.256;6.456;2024-02-16T03:06:19;7.47;;;3.90;;
51764;SDS011;37835;53.256;6.456;2024-02-16T03:08:46;4.60;;;3.38;;
51764;SDS011;37835;53.256;6.456;2024-02-16T03:11:12;6.95;;;3.75;;
51764;SDS011;37835;53.256;6.456;2024-02-16T03:13:38;11.55;;;4.00;;
51764;SDS011;37835;53.256;6.456;2024-02-16T03:16:04;5.88;;;3.50;;
51764;SDS011;37835;53.256;6.456;2024-02-16T03:18:30;7.65;;;3.83;;
51764;SDS011;37835;53.256;6.456;2024-02-16T03:20:56;7.10;;;3.65;;
51764;SDS011;37835;53.256;6.456;2024-02-16T03:23:22;7.43;;;4.00;;
51764;SDS011;37835;53.256;6.456;2024-02-16T03:25:48;8.32;;;4.10;;
51764;SDS011;37835;53.256;6.456;2024-02-16T03:28:14;8.00;;;4.50;;
51764;SDS011;37835;53.256;6.456;2024-02-16T03:30:43;7.43;;;4.22;;
51764;SDS011;37835;53.256;6.456;2024-02-16T03:33:09;5.72;;;3.63;;
51764;SDS011;37835;53.256;6.456;2024-02-16T03:35:35;7.55;;;3.90;;
51764;SDS011;37835;53.256;6.456;2024-02-16T03:38:03;9.75;;;3.78;;
51764;SDS011;37835;53.256;6.456;2024-02-16T03:40:29;8.18;;;3.80;;
51764;SDS011;37835;53.256;6.456;2024-02-16T03:42:55;9.00;;;3.97;;
51764;SDS011;37835;53.256;6.456;2024-02-16T03:45:21;9.07;;;4.47;;
51764;SDS011;37835;53.256;6.456;2024-02-16T03:47:48;7.57;;;4.03;;
51764;SDS011;37835;53.256;6.456;2024-02-16T03:50:14;6.95;;;3.80;;
51764;SDS011;37835;53.256;6.456;2024-02-16T03:52:43;7.70;;;3.90;;
51764;SDS011;37835;53.256;6.456;2024-02-16T03:55:09;7.47;;;3.83;;
51764;SDS011;37835;53.256;6.456;2024-02-16T03:57:39;7.63;;;3.67;;
51764;SDS011;37835;53.256;6.456;2024-02-16T04:00:08;9.98;;;4.05;;
51764;SDS011;37835;53.256;6.456;2024-02-16T04:02:37;7.47;;;4.10;;
51764;SDS011;37835;53.256;6.456;2024-02-16T04:05:04;8.23;;;4.53;;
51764;SDS011;37835;53.256;6.456;2024-02-16T04:07:30;7.30;;;3.92;;
51764;SDS011;37835;53.256;6.456;2024-02-16T04:09:55;9.98;;;3.97;;
51764;SDS011;37835;53.256;6.456;2024-02-16T04:12:22;9.43;;;3.80;;
51764;SDS011;37835;53.256;6.456;2024-02-16T04:14:48;6.95;;;3.80;;
51764;SDS011;37835;53.256;6.456;2024-02-16T04:17:13;5.82;;;4.00;;
51764;SDS011;37835;53.256;6.456;2024-02-16T04:19:39;8.10;;;3.85;;
51764;SDS011;37835;53.256;6.456;2024-02-16T04:22:05;7.20;;;4.15;;
51764;SDS011;37835;53.256;6.456;2024-02-16T04:24:32;7.82;;;4.38;;
51764;SDS011;37835;53.256;6.456;2024-02-16T04:26:58;8.27;;;3.90;;
51764;SDS011;37835;53.256;6.456;2024-02-16T04:29:23;8.70;;;4.60;;
51764;SDS011;37835;53.256;6.456;2024-02-16T04:31:49;6.10;;;3.72;;
51764;SDS011;37835;53.256;6.456;2024-02-16T04:34:15;6.55;;;4.13;;
51764;SDS011;37835;53.256;6.456;2024-02-16T04:36:41;7.63;;;4.35;;
51764;SDS011;37835;53.256;6.456;2024-02-16T04:39:07;9.07;;;4.47;;
51764;SDS011;37835;53.256;6.456;2024-02-16T04:41:36;9.15;;;4.43;;
51764;SDS011;37835;53.256;6.456;2024-02-16T04:44:06;8.68;;;4.57;;
51764;SDS011;37835;53.256;6.456;2024-02-16T04:46:32;7.25;;;4.07;;
51764;SDS011;37835;53.256;6.456;2024-02-16T04:48:57;9.15;;;4.38;;
51764;SDS011;37835;53.256;6.456;2024-02-16T04:51:26;6.68;;;4.28;;
51764;SDS011;37835;53.256;6.456;2024-02-16T04:53:51;8.15;;;4.30;;
51764;SDS011;37835;53.256;6.456;2024-02-16T04:56:17;6.60;;;3.80;;
51764;SDS011;37835;53.256;6.456;2024-02-16T04:58:43;11.10;;;4.57;;
51764;SDS011;37835;53.256;6.456;2024-02-16T05:01:09;7.00;;;4.15;;
51764;SDS011;37835;53.256;6.456;2024-02-16T05:03:35;7.28;;;3.85;;
51764;SDS011;37835;53.256;6.456;2024-02-16T05:06:00;7.07;;;3.97;;
51764;SDS011;37835;53.256;6.456;2024-02-16T05:08:26;5.80;;;4.15;;
51764;SDS011;37835;53.256;6.456;2024-02-16T05:10:52;5.43;;;3.75;;
51764;SDS011;37835;53.256;6.456;2024-02-16T05:13:18;4.30;;;3.47;;
51764;SDS011;37835;53.256;6.456;2024-02-16T05:15:45;6.93;;;3.75;;
51764;SDS011;37835;53.256;6.456;2024-02-16T05:18:13;6.70;;;3.83;;
51764;SDS011;37835;53.256;6.456;2024-02-16T05:20:40;7.10;;;3.80;;
51764;SDS011;37835;53.256;6.456;2024-02-16T05:23:05;11.93;;;3.97;;
51764;SDS011;37835;53.256;6.456;2024-02-16T05:25:31;7.50;;;3.83;;
51764;SDS011;37835;53.256;6.456;2024-02-16T05:27:57;5.13;;;3.67;;
51764;SDS011;37835;53.256;6.456;2024-02-16T05:30:24;6.75;;;3.90;;
51764;SDS011;37835;53.256;6.456;2024-02-16T05:32:49;4.85;;;3.25;;
51764;SDS011;37835;53.256;6.456;2024-02-16T05:35:18;6.72;;;3.70;;
51764;SDS011;37835;53.256;6.456;2024-02-16T05:37:44;5.07;;;3.88;;
51764;SDS011;37835;53.256;6.456;2024-02-16T05:40:12;6.85;;;3.80;;
51764;SDS011;37835;53.256;6.456;2024-02-16T05:42:50;7.70;;;4.05;;
51764;SDS011;37835;53.256;6.456;2024-02-16T05:45:16;5.72;;;3.90;;
51764;SDS011;37835;53.256;6.456;2024-02-16T05:47:49;8.10;;;3.65;;
51764;SDS011;37835;53.256;6.456;2024-02-16T05:50:15;5.57;;;3.40;;
51764;SDS011;37835;53.256;6.456;2024-02-16T05:52:41;5.57;;;3.35;;
51764;SDS011;37835;53.256;6.456;2024-02-16T05:55:08;5.35;;;3.85;;
51764;SDS011;37835;53.256;6.456;2024-02-16T05:57:35;5.60;;;3.80;;
51764;SDS011;37835;53.256;6.456;2024-02-16T06:00:06;8.02;;;3.65;;
51764;SDS011;37835;53.256;6.456;2024-02-16T06:02:34;5.88;;;3.58;;
51764;SDS011;37835;53.256;6.456;2024-02-16T06:05:02;5.35;;;3.65;;
51764;SDS011;37835;53.256;6.456;2024-02-16T06:07:29;4.72;;;3.63;;
51764;SDS011;37835;53.256;6.456;2024-02-16T06:09:55;4.57;;;3.22;;
51764;SDS011;37835;53.256;6.456;2024-02-16T06:12:21;5.30;;;3.20;;
51764;SDS011;37835;53.256;6.456;2024-02-16T06:14:47;4.90;;;3.75;;
51764;SDS011;37835;53.256;6.456;2024-02-16T06:17:17;5.53;;;3.70;;
51764;SDS011;37835;53.256;6.456;2024-02-16T06:19:43;5.68;;;3.65;;
51764;SDS011;37835;53.256;6.456;2024-02-16T06:22:09;6.40;;;3.42;;
51764;SDS011;37835;53.256;6.456;2024-02-16T06:24:35;6.80;;;4.20;;
51764;SDS011;37835;53.256;6.456;2024-02-16T06:27:02;7.90;;;3.47;;
51764;SDS011;37835;53.256;6.456;2024-02-16T06:29:28;6.15;;;3.55;;
51764;SDS011;37835;53.256;6.456;2024-02-16T06:31:55;5.90;;;3.90;;
51764;SDS011;37835;53.256;6.456;2024-02-16T06:34:22;8.82;;;3.85;;
51764;SDS011;37835;53.256;6.456;2024-02-16T06:36:48;7.15;;;3.88;;
51764;SDS011;37835;53.256;6.456;2024-02-16T06:39:15;5.38;;;3.78;;
51764;SDS011;37835;53.256;6.456;2024-02-16T06:41:45;5.07;;;3.55;;
51764;SDS011;37835;53.256;6.456;2024-02-16T06:44:12;3.75;;;3.33;;
51764;SDS011;37835;53.256;6.456;2024-02-16T06:46:38;8.63;;;3.65;;
51764;SDS011;37835;53.256;6.456;2024-02-16T06:49:04;7.13;;;3.75;;
51764;SDS011;37835;53.256;6.456;2024-02-16T06:51:29;7.03;;;3.67;;
51764;SDS011;37835;53.256;6.456;2024-02-16T06:53:55;7.00;;;3.78;;
51764;SDS011;37835;53.256;6.456;2024-02-16T06:56:21;7.88;;;3.90;;
51764;SDS011;37835;53.256;6.456;2024-02-16T06:58:46;5.32;;;3.80;;
51764;SDS011;37835;53.256;6.456;2024-02-16T07:01:12;7.60;;;3.50;;
51764;SDS011;37835;53.256;6.456;2024-02-16T07:03:39;6.90;;;3.60;;
51764;SDS011;37835;53.256;6.456;2024-02-16T07:06:05;6.50;;;3.55;;
51764;SDS011;37835;53.256;6.456;2024-02-16T07:08:35;5.47;;;3.38;;
51764;SDS011;37835;53.256;6.456;2024-02-16T07:11:03;5.35;;;3.58;;
51764;SDS011;37835;53.256;6.456;2024-02-16T07:13:30;6.57;;;3.50;;
51764;SDS011;37835;53.256;6.456;2024-02-16T07:15:59;7.05;;;3.65;;
51764;SDS011;37835;53.256;6.456;2024-02-16T07:18:24;4.68;;;3.70;;
51764;SDS011;37835;53.256;6.456;2024-02-16T07:20:50;6.70;;;3.75;;
51764;SDS011;37835;53.256;6.456;2024-02-16T07:23:16;4.95;;;3.55;;
51764;SDS011;37835;53.256;6.456;2024-02-16T07:25:42;7.78;;;3.70;;
51764;SDS011;37835;53.256;6.456;2024-02-16T07:28:11;5.35;;;3.85;;
51764;SDS011;37835;53.256;6.456;2024-02-16T07:30:36;6.63;;;3.97;;
51764;SDS011;37835;53.256;6.456;2024-02-16T07:33:04;5.75;;;3.85;;
51764;SDS011;37835;53.256;6.456;2024-02-16T07:35:30;5.40;;;3.83;;
51764;SDS011;37835;53.256;6.456;2024-02-16T07:37:56;4.68;;;3.85;;
51764;SDS011;37835;53.256;6.456;2024-02-16T07:40:22;6.95;;;4.32;;
51764;SDS011;37835;53.256;6.456;2024-02-16T07:42:47;5.93;;;3.78;;
51764;SDS011;37835;53.256;6.456;2024-02-16T07:45:13;6.70;;;4.38;;
51764;SDS011;37835;53.256;6.456;2024-02-16T07:47:42;6.15;;;4.30;;
51764;SDS011;37835;53.256;6.456;2024-02-16T07:50:08;11.10;;;4.47;;
51764;SDS011;37835;53.256;6.456;2024-02-16T07:52:34;5.63;;;3.63;;
51764;SDS011;37835;53.256;6.456;2024-02-16T07:55:00;9.38;;;4.18;;
51764;SDS011;37835;53.256;6.456;2024-02-16T07:57:26;6.90;;;3.90;;
51764;SDS011;37835;53.256;6.456;2024-02-16T07:59:52;4.50;;;4.03;;
51764;SDS011;37835;53.256;6.456;2024-02-16T08:02:18;8.00;;;4.05;;
51764;SDS011;37835;53.256;6.456;2024-02-16T08:04:48;5.95;;;3.88;;
51764;SDS011;37835;53.256;6.456;2024-02-16T08:07:14;4.53;;;3.53;;
51764;SDS011;37835;53.256;6.456;2024-02-16T08:09:50;5.53;;;4.00;;
51764;SDS011;37835;53.256;6.456;2024-02-16T08:12:16;5.07;;;3.67;;
51764;SDS011;37835;53.256;6.456;2024-02-16T08:14:42;5.55;;;3.50;;
51764;SDS011;37835;53.256;6.456;2024-02-16T08:17:08;4.35;;;3.72;;
51764;SDS011;37835;53.256;6.456;2024-02-16T08:19:35;7.03;;;4.20;;
51764;SDS011;37835;53.256;6.456;2024-02-16T08:22:02;4.43;;;4.03;;
51764;SDS011;37835;53.256;6.456;2024-02-16T08:24:32;7.50;;;4.05;;
51764;SDS011;37835;53.256;6.456;2024-02-16T08:26:58;7.32;;;3.97;;
51764;SDS011;37835;53.256;6.456;2024-02-16T08:29:24;8.73;;;4.35;;
51764;SDS011;37835;53.256;6.456;2024-02-16T08:31:50;9.95;;;4.53;;
51764;SDS011;37835;53.256;6.456;2024-02-16T08:34:17;6.65;;;4.03;;
51764;SDS011;37835;53.256;6.456;2024-02-16T08:36:46;8.93;;;4.72;;
51764;SDS011;37835;53.256;6.456;2024-02-16T08:39:13;7.30;;;4.13;;
51764;SDS011;37835;53.256;6.456;2024-02-16T08:41:39;4.70;;;4.15;;
51764;SDS011;37835;53.256;6.456;2024-02-16T08:44:10;5.63;;;4.30;;
51764;SDS011;37835;53.256;6.456;2024-02-16T08:46:36;9.45;;;4.40;;
51764;SDS011;37835;53.256;6.456;2024-02-16T08:49:02;8.13;;;4.65;;
51764;SDS011;37835;53.256;6.456;2024-02-16T08:51:28;4.82;;;4.07;;
51764;SDS011;37835;53.256;6.456;2024-02-16T08:53:54;6.72;;;4.32;;
51764;SDS011;37835;53.256;6.456;2024-02-16T08:56:20;7.38;;;4.53;;
51764;SDS011;37835;53.256;6.456;2024-02-16T08:58:46;6.15;;;4.88;;
51764;SDS011;37835;53.256;6.456;2024-02-16T09:01:12;7.78;;;4.82;;
51764;SDS011;37835;53.256;6.456;2024-02-16T09:03:37;7.70;;;4.95;;
51764;SDS011;37835;53.256;6.456;2024-02-16T09:06:05;5.78;;;4.72;;
51764;SDS011;37835;53.256;6.456;2024-02-16T09:08:31;7.63;;;4.97;;
51764;SDS011;37835;53.256;6.456;2024-02-16T09:11:00;7.30;;;5.13;;
51764;SDS011;37835;53.256;6.456;2024-02-16T09:13:35;9.18;;;4.90;;
51764;SDS011;37835;53.256;6.456;2024-02-16T09:16:02;11.02;;;4.95;;
51764;SDS011;37835;53.256;6.456;2024-02-16T09:18:28;6.82;;;4.57;;
51764;SDS011;37835;53.256;6.456;2024-02-16T09:20:54;7.78;;;4.75;;
51764;SDS011;37835;53.256;6.456;2024-02-16T09:23:20;6.57;;;4.80;;
51764;SDS011;37835;53.256;6.456;2024-02-16T09:25:46;7.85;;;5.40;;
51764;SDS011;37835;53.256;6.456;2024-02-16T09:28:12;8.82;;;5.18;;
51764;SDS011;37835;53.256;6.456;2024-02-16T09:30:38;8.23;;;5.30;;
51764;SDS011;37835;53.256;6.456;2024-02-16T09:33:03;10.38;;;5.30;;
51764;SDS011;37835;53.256;6.456;2024-02-16T09:35:30;8.20;;;4.90;;
51764;SDS011;37835;53.256;6.456;2024-02-16T09:37:56;8.25;;;5.25;;
51764;SDS011;37835;53.256;6.456;2024-02-16T09:40:22;7.30;;;5.55;;
51764;SDS011;37835;53.256;6.456;2024-02-16T09:42:48;8.68;;;5.40;;
51764;SDS011;37835;53.256;6.456;2024-02-16T09:45:20;10.68;;;6.22;;
51764;SDS011;37835;53.256;6.456;2024-02-16T09:47:46;9.88;;;5.07;;
51764;SDS011;37835;53.256;6.456;2024-02-16T09:50:12;9.38;;;5.60;;
51764;SDS011;37835;53.256;6.456;2024-02-16T09:52:39;10.93;;;6.07;;
51764;SDS011;37835;53.256;6.456;2024-02-16T09:55:09;11.10;;;6.03;;
51764;SDS011;37835;53.256;6.456;2024-02-16T09:57:37;10.38;;;6.82;;
51764;SDS011;37835;53.256;6.456;2024-02-16T10:00:03;6.95;;;5.47;;
51764;SDS011;37835;53.256;6.456;2024-02-16T10:02:42;7.93;;;5.97;;
51764;SDS011;37835;53.256;6.456;2024-02-16T10:05:15;9.35;;;5.97;;
51764;SDS011;37835;53.256;6.456;2024-02-16T10:07:43;11.38;;;6.10;;
51764;SDS011;37835;53.256;6.456;2024-02-16T10:10:21;7.18;;;5.90;;
51764;SDS011;37835;53.256;6.456;2024-02-16T10:12:47;9.30;;;5.85;;
51764;SDS011;37835;53.256;6.456;2024-02-16T10:15:20;7.47;;;5.57;;
51764;SDS011;37835;53.256;6.456;2024-02-16T10:20:29;13.68;;;6.50;;
51764;SDS011;37835;53.256;6.456;2024-02-16T10:25:33;8.35;;;6.32;;
51764;SDS011;37835;53.256;6.456;2024-02-16T10:28:00;11.10;;;6.55;;
51764;SDS011;37835;53.256;6.456;2024-02-16T10:30:34;10.52;;;6.47;;
51764;SDS011;37835;53.256;6.456;2024-02-16T10:33:02;7.80;;;6.70;;
51764;SDS011;37835;53.256;6.456;2024-02-16T10:35:30;9.68;;;6.63;;
51764;SDS011;37835;53.256;6.456;2024-02-16T10:37:59;10.27;;;7.13;;
51764;SDS011;37835;53.256;6.456;2024-02-16T10:40:41;14.27;;;7.70;;
51764;SDS011;37835;53.256;6.456;2024-02-16T10:43:08;9.60;;;6.85;;
51764;SDS011;37835;53.256;6.456;2024-02-16T10:45:37;12.07;;;6.95;;
51764;SDS011;37835;53.256;6.456;2024-02-16T10:48:04;12.48;;;7.40;;
51764;SDS011;37835;53.256;6.456;2024-02-16T10:50:31;13.70;;;8.48;;
51764;SDS011;37835;53.256;6.456;2024-02-16T10:53:00;13.40;;;8.32;;
51764;SDS011;37835;53.256;6.456;2024-02-16T10:55:46;12.90;;;8.45;;
51764;SDS011;37835;53.256;6.456;2024-02-16T10:58:12;14.45;;;9.15;;
51764;SDS011;37835;53.256;6.456;2024-02-16T11:00:50;14.20;;;8.77;;
51764;SDS011;37835;53.256;6.456;2024-02-16T11:03:26;18.60;;;9.73;;
51764;SDS011;37835;53.256;6.456;2024-02-16T11:05:53;19.77;;;10.55;;
51764;SDS011;37835;53.256;6.456;2024-02-16T11:08:19;18.65;;;10.65;;
51764;SDS011;37835;53.256;6.456;2024-02-16T11:13:24;27.13;;;12.23;;
51764;SDS011;37835;53.256;6.456;2024-02-16T11:15:58;28.15;;;11.90;;
51764;SDS011;37835;53.256;6.456;2024-02-16T11:18:26;22.52;;;11.75;;
51764;SDS011;37835;53.256;6.456;2024-02-16T11:20:55;21.92;;;12.10;;
51764;SDS011;37835;53.256;6.456;2024-02-16T11:23:33;22.58;;;12.35;;
51764;SDS011;37835;53.256;6.456;2024-02-16T11:26:04;24.15;;;12.18;;
51764;SDS011;37835;53.256;6.456;2024-02-16T11:28:35;23.40;;;12.57;;
51764;SDS011;37835;53.256;6.456;2024-02-16T11:31:02;22.75;;;12.25;;
51764;SDS011;37835;53.256;6.456;2024-02-16T11:33:28;24.55;;;12.55;;
51764;SDS011;37835;53.256;6.456;2024-02-16T11:35:55;17.92;;;11.50;;
51764;SDS011;37835;53.256;6.456;2024-02-16T11:38:22;19.15;;;11.82;;
51764;SDS011;37835;53.256;6.456;2024-02-16T11:43:23;21.58;;;10.52;;
51764;SDS011;37835;53.256;6.456;2024-02-16T11:45:50;21.35;;;10.85;;
51764;SDS011;37835;53.256;6.456;2024-02-16T11:48:24;16.40;;;11.02;;
51764;SDS011;37835;53.256;6.456;2024-02-16T11:50:59;18.95;;;11.25;;
51764;SDS011;37835;53.256;6.456;2024-02-16T11:53:27;17.88;;;10.20;;
51764;SDS011;37835;53.256;6.456;2024-02-16T11:55:53;19.58;;;10.20;;
51764;SDS011;37835;53.256;6.456;2024-02-16T11:58:19;20.52;;;9.88;;
51764;SDS011;37835;53.256;6.456;2024-02-16T12:00:47;20.23;;;10.63;;
51764;SDS011;37835;53.256;6.456;2024-02-16T12:03:20;18.02;;;9.43;;
51764;SDS011;37835;53.256;6.456;2024-02-16T12:05:53;15.30;;;9.63;;
51764;SDS011;37835;53.256;6.456;2024-02-16T12:08:23;14.63;;;8.52;;
51764;SDS011;37835;53.256;6.456;2024-02-16T12:10:56;15.57;;;8.55;;
51764;SDS011;37835;53.256;6.456;2024-02-16T12:13:22;13.77;;;8.63;;
51764;SDS011;37835;53.256;6.456;2024-02-16T12:15:48;15.48;;;8.02;;
51764;SDS011;37835;53.256;6.456;2024-02-16T12:18:26;15.32;;;8.18;;
51764;SDS011;37835;53.256;6.456;2024-02-16T12:23:28;15.77;;;8.20;;
51764;SDS011;37835;53.256;6.456;2024-02-16T12:25:56;15.60;;;7.88;;
51764;SDS011;37835;53.256;6.456;2024-02-16T12:28:28;14.77;;;6.82;;
51764;SDS011;37835;53.256;6.456;2024-02-16T12:30:57;13.18;;;7.15;;
51764;SDS011;37835;53.256;6.456;2024-02-16T12:33:23;12.73;;;7.45;;
51764;SDS011;37835;53.256;6.456;2024-02-16T12:35:49;11.32;;;6.65;;
51764;SDS011;37835;53.256;6.456;2024-02-16T12:38:15;9.32;;;6.22;;
51764;SDS011;37835;53.256;6.456;2024-02-16T12:40:50;8.82;;;6.68;;
51764;SDS011;37835;53.256;6.456;2024-02-16T12:43:17;9.55;;;6.90;;
51764;SDS011;37835;53.256;6.456;2024-02-16T12:45:44;10.55;;;6.55;;
51764;SDS011;37835;53.256;6.456;2024-02-16T12:48:10;9.82;;;6.35;;
51764;SDS011;37835;53.256;6.456;2024-02-16T12:50:38;8.82;;;5.70;;
51764;SDS011;37835;53.256;6.456;2024-02-16T12:53:04;7.30;;;6.00;;
51764;SDS011;37835;53.256;6.456;2024-02-16T12:55:30;9.15;;;6.10;;
51764;SDS011;37835;53.256;6.456;2024-02-16T12:57:59;7.30;;;5.75;;
51764;SDS011;37835;53.256;6.456;2024-02-16T13:00:25;9.82;;;5.88;;
51764;SDS011;37835;53.256;6.456;2024-02-16T13:02:50;8.70;;;5.68;;
51764;SDS011;37835;53.256;6.456;2024-02-16T13:05:16;6.25;;;4.82;;
51764;SDS011;37835;53.256;6.456;2024-02-16T13:07:42;7.35;;;4.15;;
51764;SDS011;37835;53.256;6.456;2024-02-16T13:10:10;6.35;;;4.40;;
51764;SDS011;37835;53.256;6.456;2024-02-16T13:12:37;4.70;;;3.92;;
51764;SDS011;37835;53.256;6.456;2024-02-16T13:15:04;5.03;;;3.80;;
51764;SDS011;37835;53.256;6.456;2024-02-16T13:17:31;5.05;;;3.58;;
51764;SDS011;37835;53.256;6.456;2024-02-16T13:19:58;3.85;;;3.45;;
51764;SDS011;37835;53.256;6.456;2024-02-16T13:22:38;4.88;;;3.35;;
51764;SDS011;37835;53.256;6.456;2024-02-16T13:25:04;5.68;;;3.00;;
51764;SDS011;37835;53.256;6.456;2024-02-16T13:27:33;3.55;;;2.58;;
51764;SDS011;37835;53.256;6.456;2024-02-16T13:29:59;3.70;;;2.88;;
51764;SDS011;37835;53.256;6.456;2024-02-16T13:32:25;3.70;;;3.03;;
51764;SDS011;37835;53.256;6.456;2024-02-16T13:34:51;4.30;;;2.90;;
51764;SDS011;37835;53.256;6.456;2024-02-16T13:37:17;3.38;;;2.80;;
51764;SDS011;37835;53.256;6.456;2024-02-16T13:39:43;4.97;;;2.80;;
51764;SDS011;37835;53.256;6.456;2024-02-16T13:42:08;4.03;;;2.97;;
51764;SDS011;37835;53.256;6.456;2024-02-16T13:44:35;2.88;;;2.60;;
51764;SDS011;37835;53.256;6.456;2024-02-16T13:47:02;5.47;;;3.50;;
51764;SDS011;37835;53.256;6.456;2024-02-16T13:49:27;3.83;;;3.30;;
51764;SDS011;37835;53.256;6.456;2024-02-16T13:51:53;5.05;;;3.90;;
51764;SDS011;37835;53.256;6.456;2024-02-16T13:54:24;6.65;;;4.25;;
51764;SDS011;37835;53.256;6.456;2024-02-16T13:56:50;5.72;;;4.22;;
51764;SDS011;37835;53.256;6.456;2024-02-16T13:59:16;5.63;;;4.60;;
51764;SDS011;37835;53.256;6.456;2024-02-16T14:01:41;5.40;;;4.30;;
51764;SDS011;37835;53.256;6.456;2024-02-16T14:04:07;5.85;;;4.50;;
51764;SDS011;37835;53.256;6.456;2024-02-16T14:06:33;5.43;;;4.70;;
51764;SDS011;37835;53.256;6.456;2024-02-16T14:09:00;8.52;;;5.10;;
51764;SDS011;37835;53.256;6.456;2024-02-16T14:11:33;6.20;;;4.50;;
51764;SDS011;37835;53.256;6.456;2024-02-16T14:13:59;6.20;;;4.43;;
51764;SDS011;37835;53.256;6.456;2024-02-16T14:16:25;7.32;;;4.90;;
51764;SDS011;37835;53.256;6.456;2024-02-16T14:18:51;8.55;;;5.15;;
51764;SDS011;37835;53.256;6.456;2024-02-16T14:21:17;8.63;;;4.70;;
51764;SDS011;37835;53.256;6.456;2024-02-16T14:23:44;7.75;;;4.72;;
51764;SDS011;37835;53.256;6.456;2024-02-16T14:26:09;9.25;;;4.97;;
51764;SDS011;37835;53.256;6.456;2024-02-16T14:28:36;10.60;;;4.82;;
51764;SDS011;37835;53.256;6.456;2024-02-16T14:31:02;11.73;;;5.55;;
51764;SDS011;37835;53.256;6.456;2024-02-16T14:33:28;9.95;;;4.50;;
51764;SDS011;37835;53.256;6.456;2024-02-16T14:35:53;8.82;;;4.60;;
51764;SDS011;37835;53.256;6.456;2024-02-16T14:38:19;8.77;;;4.53;;
51764;SDS011;37835;53.256;6.456;2024-02-16T14:40:45;7.45;;;4.57;;
51764;SDS011;37835;53.256;6.456;2024-02-16T14:43:10;9.07;;;4.75;;
51764;SDS011;37835;53.256;6.456;2024-02-16T14:45:37;8.30;;;5.20;;
51764;SDS011;37835;53.256;6.456;2024-02-16T14:48:03;11.18;;;4.97;;
51764;SDS011;37835;53.256;6.456;2024-02-16T14:50:30;8.15;;;5.10;;
51764;SDS011;37835;53.256;6.456;2024-02-16T14:52:56;9.15;;;5.13;;
51764;SDS011;37835;53.256;6.456;2024-02-16T14:55:22;7.53;;;4.93;;